createdAt,value
2022-08-29T00:03:43.204Z,99.90
2022-08-29T00:08:11.371Z,99.90
2022-08-29T00:12:20.329Z,99.90
2022-08-29T00:16:29.021Z,99.90
2022-08-29T00:20:38.316Z,99.90
2022-08-29T00:24:46.990Z,99.90
2022-08-29T00:28:55.602Z,99.90
2022-08-29T00:33:23.563Z,99.90
2022-08-29T00:37:32.514Z,99.90
2022-08-29T00:41:41.058Z,99.90
2022-08-29T00:45:55.706Z,99.90
2022-08-29T00:50:08.786Z,99.90
2022-08-29T00:54:17.825Z,99.90
2022-08-29T00:58:29.512Z,99.90
2022-08-29T01:02:40.817Z,99.90
2022-08-29T01:07:01.561Z,99.90
2022-08-29T01:11:31.413Z,99.90
2022-08-29T01:15:42.423Z,99.90
2022-08-29T01:19:57.180Z,99.90
2022-08-29T01:24:28.054Z,99.90
2022-08-29T01:28:56.977Z,99.90
2022-08-29T01:33:06.716Z,99.90
2022-08-29T01:37:18.066Z,99.90
2022-08-29T01:41:27.936Z,99.90
2022-08-29T01:45:36.617Z,99.90
2022-08-29T01:49:45.684Z,99.90
2022-08-29T01:53:54.353Z,99.90
2022-08-29T01:58:02.962Z,99.90
2022-08-29T02:02:18.080Z,99.90
2022-08-29T02:06:30.114Z,99.90
2022-08-29T02:10:38.846Z,99.90
2022-08-29T02:14:50.904Z,99.90
2022-08-29T02:19:00.098Z,99.90
2022-08-29T02:23:27.119Z,99.90
2022-08-29T02:27:18.964Z,99.90
2022-08-29T02:31:27.625Z,99.90
2022-08-29T02:35:39.866Z,99.90
2022-08-29T02:39:47.188Z,99.90
2022-08-29T02:43:56.302Z,99.90
2022-08-29T02:48:05.521Z,99.90
2022-08-29T02:52:14.219Z,99.90
2022-08-29T02:56:23.673Z,99.90
2022-08-29T03:00:33.570Z,99.90
2022-08-29T03:04:42.226Z,99.90
2022-08-29T03:08:54.060Z,99.90
2022-08-29T03:13:03.704Z,99.90
2022-08-29T03:17:31.699Z,99.90
2022-08-29T03:21:41.264Z,99.90
2022-08-29T03:25:50.129Z,99.90
2022-08-29T03:29:58.909Z,99.90
2022-08-29T03:34:08.195Z,99.90
2022-08-29T03:38:17.460Z,99.90
2022-08-29T03:42:26.366Z,99.90
2022-08-29T03:46:36.909Z,99.90
2022-08-29T03:50:45.576Z,99.90
2022-08-29T03:54:54.320Z,99.90
2022-08-29T03:59:03.135Z,99.90
2022-08-29T04:03:11.724Z,99.90
2022-08-29T04:07:20.538Z,99.90
2022-08-29T04:11:29.786Z,99.90
2022-08-29T04:15:41.047Z,99.90
2022-08-29T04:19:49.633Z,99.90
2022-08-29T04:23:58.358Z,99.90
2022-08-29T04:28:10.086Z,99.90
2022-08-29T04:32:19.943Z,99.90
2022-08-29T04:36:28.829Z,99.90
2022-08-29T04:40:40.619Z,99.90
2022-08-29T04:44:49.823Z,99.90
2022-08-29T04:49:03.242Z,99.90
2022-08-29T04:53:09.700Z,99.90
2022-08-29T04:57:18.552Z,99.90
2022-08-29T05:01:28.771Z,99.90
2022-08-29T05:05:37.418Z,99.90
2022-08-29T05:09:46.032Z,99.90
2022-08-29T05:14:14.070Z,99.90
2022-08-29T05:18:23.354Z,99.90
2022-08-29T05:22:32.059Z,99.90
2022-08-29T05:26:44.198Z,99.90
2022-08-29T05:30:52.848Z,99.90
2022-08-29T05:35:01.667Z,99.90
2022-08-29T05:39:10.193Z,99.90
2022-08-29T05:43:20.463Z,99.90
2022-08-29T05:47:29.107Z,99.90
2022-08-29T05:51:39.874Z,99.90
2022-08-29T05:55:48.140Z,99.90
2022-08-29T05:59:56.743Z,99.90
2022-08-29T06:04:05.465Z,99.90
2022-08-29T06:08:14.233Z,99.90
2022-08-29T06:12:24.424Z,99.90
2022-08-29T06:16:34.606Z,99.90
2022-08-29T06:20:43.199Z,99.90
2022-08-29T06:24:57.536Z,99.90
2022-08-29T06:29:09.304Z,99.90
2022-08-29T06:33:18.115Z,99.90
2022-08-29T06:37:26.734Z,99.90
2022-08-29T06:41:54.686Z,99.90
2022-08-29T06:46:03.909Z,99.90
2022-08-29T06:50:12.484Z,99.90
2022-08-29T06:54:25.773Z,99.90
2022-08-29T06:58:36.437Z,99.90
2022-08-29T07:02:52.813Z,99.90
2022-08-29T07:06:58.476Z,99.90
2022-08-29T07:11:07.245Z,99.90
2022-08-29T07:15:15.865Z,99.90
2022-08-29T07:19:24.487Z,99.90
2022-08-29T07:23:53.363Z,99.90
2022-08-29T07:28:02.069Z,99.90
2022-08-29T07:32:11.186Z,99.90
2022-08-29T07:36:20.085Z,99.90
2022-08-29T07:40:29.189Z,99.90
2022-08-29T07:44:37.851Z,99.90
2022-08-29T07:48:47.021Z,99.90
2022-08-29T07:52:55.631Z,99.90
2022-08-29T07:57:04.430Z,99.90
2022-08-29T08:01:20.711Z,99.90
2022-08-29T08:05:24.539Z,99.90
2022-08-29T08:09:33.615Z,99.90
2022-08-29T08:13:42.660Z,99.90
2022-08-29T08:17:51.268Z,99.90
2022-08-29T08:22:00.004Z,99.90
2022-08-29T08:26:09.569Z,99.90
2022-08-29T08:30:18.313Z,99.90
2022-08-29T08:34:29.328Z,99.90
2022-08-29T08:38:38.250Z,99.90
2022-08-29T08:47:31.398Z,99.90
2022-08-29T08:51:44.738Z,99.90
2022-08-29T08:55:56.203Z,99.90
2022-08-29T09:00:06.841Z,99.90
2022-08-29T09:04:36.818Z,99.90
2022-08-29T09:09:04.504Z,99.90
2022-08-29T09:13:33.190Z,99.90
2022-08-29T09:17:44.883Z,99.90
2022-08-29T09:21:56.772Z,99.90
2022-08-29T09:26:05.661Z,99.90
2022-08-29T09:30:19.037Z,99.90
2022-08-29T09:35:07.287Z,99.90
2022-08-29T09:38:54.853Z,99.90
2022-08-29T09:43:04.584Z,99.90
2022-08-29T09:47:24.609Z,99.90
2022-08-29T09:51:36.057Z,99.90
2022-08-29T09:55:46.330Z,99.90
2022-08-29T10:00:13.579Z,99.90
2022-08-29T10:04:40.429Z,99.90
2022-08-29T10:09:12.976Z,99.90
2022-08-29T10:13:40.256Z,99.90
2022-08-29T10:18:09.674Z,99.90
2022-08-29T10:22:27.099Z,99.90
2022-08-29T10:26:50.991Z,99.90
2022-08-29T10:31:05.546Z,99.90
2022-08-29T10:35:32.349Z,99.90
2022-08-29T10:40:02.211Z,95.10
2022-08-29T10:44:34.437Z,94.90
2022-08-29T10:48:49.044Z,92.60
2022-08-29T10:53:00.708Z,93.50
2022-08-29T10:57:39.558Z,90.90
2022-08-29T11:01:56.982Z,91.10
2022-08-29T11:06:08.695Z,87.40
2022-08-29T11:10:29.807Z,90.90
2022-08-29T11:15:07.976Z,85.50
2022-08-29T11:19:22.470Z,88.70
2022-08-29T11:23:42.529Z,91.00
2022-08-29T11:28:09.425Z,89.20
2022-08-29T11:32:24.333Z,83.10
2022-08-29T11:36:48.383Z,85.10
2022-08-29T11:41:28.106Z,83.10
2022-08-29T11:45:36.582Z,79.70
2022-08-29T11:49:44.412Z,82.70
2022-08-29T11:53:53.026Z,83.20
2022-08-29T11:58:11.319Z,79.30
2022-08-29T12:02:33.599Z,77.00
2022-08-29T12:07:02.133Z,79.30
2022-08-29T12:11:10.728Z,81.30
2022-08-29T12:15:32.868Z,78.80
2022-08-29T12:19:56.109Z,75.20
2022-08-29T12:24:07.244Z,72.80
2022-08-29T12:28:25.899Z,70.70
2022-08-29T12:32:43.884Z,70.80
2022-08-29T12:37:13.489Z,70.20
2022-08-29T12:41:37.279Z,69.90
2022-08-29T12:45:49.858Z,69.90
2022-08-29T12:50:01.748Z,66.60
2022-08-29T12:54:12.201Z,66.40
2022-08-29T12:58:41.889Z,64.50
2022-08-29T13:02:59.763Z,64.80
2022-08-29T13:07:10.754Z,66.00
2022-08-29T13:11:28.292Z,64.70
2022-08-29T13:15:37.478Z,66.50
2022-08-29T13:20:23.374Z,63.40
2022-08-29T13:24:52.840Z,64.40
2022-08-29T13:29:04.522Z,63.20
2022-08-29T13:33:34.649Z,63.30
2022-08-29T13:37:35.893Z,63.90
2022-08-29T13:41:51.788Z,64.30
2022-08-29T13:46:15.636Z,60.80
2022-08-29T13:50:25.830Z,61.90
2022-08-29T13:54:35.791Z,62.20
2022-08-29T13:58:44.393Z,59.80
2022-08-29T14:02:53.120Z,59.10
2022-08-29T14:07:02.510Z,58.80
2022-08-29T14:11:11.544Z,58.90
2022-08-29T14:15:21.126Z,57.60
2022-08-29T14:19:30.974Z,59.50
2022-08-29T14:23:39.597Z,57.60
2022-08-29T14:27:49.446Z,56.50
2022-08-29T14:31:58.268Z,56.30
2022-08-29T14:36:07.447Z,56.40
2022-08-29T14:40:16.382Z,57.20
2022-08-29T14:44:27.242Z,57.60
2022-08-29T14:48:36.358Z,57.40
2022-08-29T14:52:45.510Z,56.80
2022-08-29T14:56:54.088Z,54.60
2022-08-29T15:01:02.678Z,53.40
2022-08-29T15:05:12.113Z,53.80
2022-08-29T15:09:21.648Z,53.50
2022-08-29T15:13:30.254Z,54.50
2022-08-29T15:17:40.481Z,53.80
2022-08-29T15:21:49.644Z,53.30
2022-08-29T15:25:58.219Z,53.40
2022-08-29T15:30:08.747Z,55.90
2022-08-29T15:34:17.283Z,55.70
2022-08-29T15:38:25.899Z,56.60
2022-08-29T15:42:34.802Z,56.30
2022-08-29T15:46:50.562Z,55.70
2022-08-29T15:50:53.704Z,55.60
2022-08-29T15:55:02.619Z,55.20
2022-08-29T15:59:13.188Z,55.70
2022-08-29T16:03:22.137Z,57.10
2022-08-29T16:07:31.311Z,57.40
2022-08-29T16:11:40.373Z,56.30
2022-08-29T16:15:50.177Z,56.70
2022-08-29T16:20:00.699Z,57.40
2022-08-29T16:24:09.674Z,56.90
2022-08-29T16:28:18.957Z,56.70
2022-08-29T16:32:27.904Z,57.30
2022-08-29T16:36:37.121Z,55.20
2022-08-29T16:40:46.015Z,57.80
2022-08-29T16:44:54.586Z,58.40
2022-08-29T16:49:03.259Z,57.10
2022-08-29T16:53:11.855Z,57.80
2022-08-29T16:57:20.542Z,58.60
2022-08-29T17:01:32.144Z,59.20
2022-08-29T17:05:40.939Z,59.10
2022-08-29T17:09:48.857Z,59.60
2022-08-29T17:13:57.015Z,59.60
2022-08-29T17:18:24.866Z,60.40
2022-08-29T17:22:34.209Z,61.00
2022-08-29T17:26:45.711Z,62.40
2022-08-29T17:30:57.387Z,63.20
2022-08-29T17:35:07.408Z,63.70
2022-08-29T17:39:16.015Z,63.30
2022-08-29T17:43:26.002Z,64.40
2022-08-29T17:47:34.586Z,65.00
2022-08-29T17:51:43.537Z,65.30
2022-08-29T17:55:54.754Z,65.40
2022-08-29T18:00:05.169Z,65.50
2022-08-29T18:04:14.223Z,65.90
2022-08-29T18:08:22.834Z,65.80
2022-08-29T18:12:31.545Z,65.90
2022-08-29T18:16:40.749Z,66.60
2022-08-29T18:20:49.655Z,66.70
2022-08-29T18:24:59.011Z,66.70
2022-08-29T18:29:07.892Z,67.20
2022-08-29T18:33:16.573Z,67.80
2022-08-29T18:37:25.233Z,68.20
2022-08-29T18:41:34.274Z,67.90
2022-08-29T18:45:43.249Z,68.90
2022-08-29T18:50:09.524Z,69.30
2022-08-29T18:54:19.327Z,69.50
2022-08-29T18:58:31.413Z,69.50
2022-08-29T19:02:40.249Z,70.40
2022-08-29T19:06:49.018Z,71.00
2022-08-29T19:10:59.182Z,71.40
2022-08-29T19:15:09.014Z,72.40
2022-08-29T19:19:17.783Z,72.70
2022-08-29T19:23:26.742Z,73.60
2022-08-29T19:27:55.721Z,74.30
2022-08-29T19:32:04.580Z,75.00
2022-08-29T19:36:13.660Z,75.80
2022-08-29T19:40:22.491Z,76.70
2022-08-29T19:44:31.125Z,76.80
2022-08-29T19:48:41.439Z,77.30
2022-08-29T19:52:50.160Z,77.70
2022-08-29T19:56:58.774Z,77.70
2022-08-29T20:01:09.385Z,78.30
2022-08-29T20:05:19.278Z,79.00
2022-08-29T20:09:29.541Z,79.30
2022-08-29T20:13:39.939Z,80.10
2022-08-29T20:17:49.113Z,81.20
2022-08-29T20:21:57.728Z,81.50
2022-08-29T20:26:06.486Z,82.10
2022-08-29T20:30:18.221Z,82.60
2022-08-29T20:34:29.693Z,83.00
2022-08-29T20:38:38.344Z,83.80
2022-08-29T20:42:46.960Z,84.90
2022-08-29T20:46:55.762Z,85.80
2022-08-29T20:51:07.371Z,86.60
2022-08-29T20:55:16.628Z,87.50
2022-08-29T20:59:26.623Z,87.80
2022-08-29T21:04:12.834Z,88.70
2022-08-29T21:08:23.273Z,89.70
2022-08-29T21:12:31.901Z,90.40
2022-08-29T21:16:40.566Z,90.90
2022-08-29T21:20:54.118Z,91.20
2022-08-29T21:25:22.363Z,91.60
2022-08-29T21:29:31.060Z,92.10
2022-08-29T21:33:42.398Z,92.40
2022-08-29T21:37:51.547Z,93.00
2022-08-29T21:42:02.910Z,93.70
2022-08-29T21:46:18.419Z,94.70
2022-08-29T21:50:27.564Z,95.70
2022-08-29T21:54:36.192Z,96.50
2022-08-29T21:58:46.789Z,98.30
2022-08-29T22:02:55.938Z,99.90
2022-08-29T22:07:05.739Z,99.90
2022-08-29T22:11:21.984Z,99.90
2022-08-29T22:15:48.885Z,99.90
2022-08-29T22:19:57.553Z,99.90
2022-08-29T22:24:07.442Z,99.90
2022-08-29T22:28:16.386Z,99.90
2022-08-29T22:32:25.649Z,99.90
2022-08-29T22:36:36.140Z,99.90
2022-08-29T22:40:44.981Z,99.90
2022-08-29T22:45:09.198Z,99.90
2022-08-29T22:49:04.521Z,99.90
2022-08-29T22:53:14.135Z,99.90
2022-08-29T22:57:22.786Z,99.90
2022-08-29T23:01:33.545Z,99.90
2022-08-29T23:05:42.259Z,99.90
2022-08-29T23:09:50.870Z,99.90
2022-08-29T23:13:59.564Z,99.90
2022-08-29T23:18:08.178Z,99.90
2022-08-29T23:22:16.792Z,99.90
2022-08-29T23:26:25.864Z,99.90
2022-08-29T23:30:34.789Z,99.90
2022-08-29T23:34:43.404Z,99.90
2022-08-29T23:38:52.723Z,99.90
2022-08-29T23:43:01.470Z,99.90
2022-08-29T23:47:10.166Z,99.90
2022-08-29T23:51:19.068Z,99.90
2022-08-29T23:55:27.845Z,99.90
2022-08-29T23:59:54.751Z,99.90
